sensor_id;sensor_type;location;lat;lon;timestamp;pressure;altitude;pressure_sealevel;temperature
69785;BMP280;14177;51.520;6.764;2023-04-08T00:00:16;101969.28;;;8.76
69785;BMP280;14177;51.520;6.764;2023-04-08T00:02:43;101978.81;;;8.76
69785;BMP280;14177;51.520;6.764;2023-04-08T00:05:10;101978.81;;;8.76
69785;BMP280;14177;51.520;6.764;2023-04-08T00:07:38;101973.59;;;8.74
69785;BMP280;14177;51.520;6.764;2023-04-08T00:10:06;101990.06;;;8.73
69785;BMP280;14177;51.520;6.764;2023-04-08T00:12:33;101990.06;;;8.73
69785;BMP280;14177;51.520;6.764;2023-04-08T00:15:00;101990.06;;;8.70
69785;BMP280;14177;51.520;6.764;2023-04-08T00:17:27;101993.53;;;8.69
69785;BMP280;14177;51.520;6.764;2023-04-08T00:19:54;101988.34;;;8.66
69785;BMP280;14177;51.520;6.764;2023-04-08T00:22:22;101994.41;;;8.68
69785;BMP280;14177;51.520;6.764;2023-04-08T00:24:49;101996.13;;;8.66
69785;BMP280;14177;51.520;6.764;2023-04-08T00:27:16;101991.81;;;8.65
69785;BMP280;14177;51.520;6.764;2023-04-08T00:29:43;101992.69;;;8.64
69785;BMP280;14177;51.520;6.764;2023-04-08T00:32:11;101993.53;;;8.66
69785;BMP280;14177;51.520;6.764;2023-04-08T00:34:38;102000.44;;;8.66
69785;BMP280;14177;51.520;6.764;2023-04-08T00:37:05;101996.13;;;8.66
69785;BMP280;14177;51.520;6.764;2023-04-08T00:39:32;101994.38;;;8.67
69785;BMP280;14177;51.520;6.764;2023-04-08T00:42:00;102002.19;;;8.65
69785;BMP280;14177;51.520;6.764;2023-04-08T00:44:28;101999.56;;;8.67
69785;BMP280;14177;51.520;6.764;2023-04-08T00:46:55;102003.91;;;8.66
69785;BMP280;14177;51.520;6.764;2023-04-08T00:49:22;101995.28;;;8.64
69785;BMP280;14177;51.520;6.764;2023-04-08T00:51:49;102003.03;;;8.64
69785;BMP280;14177;51.520;6.764;2023-04-08T00:54:17;102006.50;;;8.63
69785;BMP280;14177;51.520;6.764;2023-04-08T00:56:44;102003.91;;;8.63
69785;BMP280;14177;51.520;6.764;2023-04-08T00:59:13;102008.25;;;8.61
69785;BMP280;14177;51.520;6.764;2023-04-08T01:05:08;102006.50;;;8.59
69785;BMP280;14177;51.520;6.764;2023-04-08T01:07:46;102001.31;;;8.59
69785;BMP280;14177;51.520;6.764;2023-04-08T01:10:29;102016.03;;;8.58
69785;BMP280;14177;51.520;6.764;2023-04-08T01:13:03;102018.59;;;8.57
69785;BMP280;14177;51.520;6.764;2023-04-08T01:15:35;102009.97;;;8.52
69785;BMP280;14177;51.520;6.764;2023-04-08T01:18:07;102016.06;;;8.49
69785;BMP280;14177;51.520;6.764;2023-04-08T01:20:36;102015.16;;;8.49
69785;BMP280;14177;51.520;6.764;2023-04-08T01:25:55;102011.72;;;8.47
69785;BMP280;14177;51.520;6.764;2023-04-08T01:28:28;102005.69;;;8.42
69785;BMP280;14177;51.520;6.764;2023-04-08T01:31:00;102011.75;;;8.38
69785;BMP280;14177;51.520;6.764;2023-04-08T01:33:29;102001.41;;;8.37
69785;BMP280;14177;51.520;6.764;2023-04-08T01:35:59;102015.22;;;8.37
69785;BMP280;14177;51.520;6.764;2023-04-08T01:38:30;102016.09;;;8.35
69785;BMP280;14177;51.520;6.764;2023-04-08T01:40:58;102024.72;;;8.37
69785;BMP280;14177;51.520;6.764;2023-04-08T01:43:26;102015.22;;;8.37
69785;BMP280;14177;51.520;6.764;2023-04-08T01:45:54;102016.06;;;8.39
69785;BMP280;14177;51.520;6.764;2023-04-08T01:48:25;102016.91;;;8.41
69785;BMP280;14177;51.520;6.764;2023-04-08T01:50:54;102009.16;;;8.40
69785;BMP280;14177;51.520;6.764;2023-04-08T01:53:22;102018.66;;;8.38
69785;BMP280;14177;51.520;6.764;2023-04-08T01:55:56;102024.72;;;8.37
69785;BMP280;14177;51.520;6.764;2023-04-08T01:58:26;102029.03;;;8.36
69785;BMP280;14177;51.520;6.764;2023-04-08T02:00:58;102031.63;;;8.35
69785;BMP280;14177;51.520;6.764;2023-04-08T02:03:28;102030.75;;;8.36
69785;BMP280;14177;51.520;6.764;2023-04-08T02:05:57;102029.03;;;8.35
69785;BMP280;14177;51.520;6.764;2023-04-08T02:08:24;102029.91;;;8.34
69785;BMP280;14177;51.520;6.764;2023-04-08T02:10:52;102028.19;;;8.33
69785;BMP280;14177;51.520;6.764;2023-04-08T02:13:19;102026.47;;;8.30
69785;BMP280;14177;51.520;6.764;2023-04-08T02:15:54;102030.78;;;8.28
69785;BMP280;14177;51.520;6.764;2023-04-08T02:18:26;102029.91;;;8.22
69785;BMP280;14177;51.520;6.764;2023-04-08T02:21:19;102024.75;;;8.17
69785;BMP280;14177;51.520;6.764;2023-04-08T02:23:49;102038.53;;;8.15
69785;BMP280;14177;51.520;6.764;2023-04-08T02:26:17;102038.53;;;8.12
69785;BMP280;14177;51.520;6.764;2023-04-08T02:28:48;102029.91;;;8.05
69785;BMP280;14177;51.520;6.764;2023-04-08T02:31:17;102027.34;;;7.99
69785;BMP280;14177;51.520;6.764;2023-04-08T02:33:46;102028.22;;;7.94
69785;BMP280;14177;51.520;6.764;2023-04-08T02:36:15;102028.22;;;7.88
69785;BMP280;14177;51.520;6.764;2023-04-08T02:38:49;102035.97;;;7.86
69785;BMP280;14177;51.520;6.764;2023-04-08T02:41:17;102029.06;;;7.79
69785;BMP280;14177;51.520;6.764;2023-04-08T02:43:44;102035.09;;;7.75
69785;BMP280;14177;51.520;6.764;2023-04-08T02:46:12;102042.03;;;7.75
69785;BMP280;14177;51.520;6.764;2023-04-08T02:48:39;102033.38;;;7.73
69785;BMP280;14177;51.520;6.764;2023-04-08T02:51:06;102036.84;;;7.72
69785;BMP280;14177;51.520;6.764;2023-04-08T02:53:34;102041.13;;;7.68
69785;BMP280;14177;51.520;6.764;2023-04-08T02:56:01;102029.06;;;7.63
69785;BMP280;14177;51.520;6.764;2023-04-08T02:58:28;102034.25;;;7.60
69785;BMP280;14177;51.520;6.764;2023-04-08T03:00:55;102031.66;;;7.60
69785;BMP280;14177;51.520;6.764;2023-04-08T03:03:22;102036.84;;;7.55
69785;BMP280;14177;51.520;6.764;2023-04-08T03:05:55;102035.09;;;7.53
69785;BMP280;14177;51.520;6.764;2023-04-08T03:08:22;102035.97;;;7.47
69785;BMP280;14177;51.520;6.764;2023-04-08T03:10:49;102047.16;;;7.45
69785;BMP280;14177;51.520;6.764;2023-04-08T03:13:16;102038.53;;;7.40
69785;BMP280;14177;51.520;6.764;2023-04-08T03:15:43;102038.53;;;7.38
69785;BMP280;14177;51.520;6.764;2023-04-08T03:18:11;102049.72;;;7.34
69785;BMP280;14177;51.520;6.764;2023-04-08T03:20:40;102040.22;;;7.32
69785;BMP280;14177;51.520;6.764;2023-04-08T03:23:31;102039.38;;;7.28
69785;BMP280;14177;51.520;6.764;2023-04-08T03:26:03;102046.25;;;7.23
69785;BMP280;14177;51.520;6.764;2023-04-08T03:28:30;102041.94;;;7.19
69785;BMP280;14177;51.520;6.764;2023-04-08T03:30:57;102050.56;;;7.14
69785;BMP280;14177;51.520;6.764;2023-04-08T03:33:26;102046.22;;;7.10
69785;BMP280;14177;51.520;6.764;2023-04-08T03:35:53;102051.38;;;7.07
69785;BMP280;14177;51.520;6.764;2023-04-08T03:38:21;102045.34;;;7.05
69785;BMP280;14177;51.520;6.764;2023-04-08T03:40:48;102051.38;;;7.01
69785;BMP280;14177;51.520;6.764;2023-04-08T03:43:15;102056.50;;;6.95
69785;BMP280;14177;51.520;6.764;2023-04-08T03:45:42;102053.91;;;6.89
69785;BMP280;14177;51.520;6.764;2023-04-08T03:48:09;102051.34;;;6.88
69785;BMP280;14177;51.520;6.764;2023-04-08T03:50:36;102055.63;;;6.87
69785;BMP280;14177;51.520;6.764;2023-04-08T03:53:03;102051.31;;;6.85
69785;BMP280;14177;51.520;6.764;2023-04-08T03:55:30;102052.19;;;6.84
69785;BMP280;14177;51.520;6.764;2023-04-08T03:57:57;102063.34;;;6.84
69785;BMP280;14177;51.520;6.764;2023-04-08T04:00:25;102062.50;;;6.85
69785;BMP280;14177;51.520;6.764;2023-04-08T04:02:51;102056.50;;;6.85
69785;BMP280;14177;51.520;6.764;2023-04-08T04:05:19;102059.94;;;6.87
69785;BMP280;14177;51.520;6.764;2023-04-08T04:07:46;102065.09;;;6.87
69785;BMP280;14177;51.520;6.764;2023-04-08T04:10:13;102073.72;;;6.86
69785;BMP280;14177;51.520;6.764;2023-04-08T04:12:40;102079.72;;;6.83
69785;BMP280;14177;51.520;6.764;2023-04-08T04:15:07;102084.88;;;6.80
69785;BMP280;14177;51.520;6.764;2023-04-08T04:17:35;102090.00;;;6.77
69785;BMP280;14177;51.520;6.764;2023-04-08T04:20:06;102088.28;;;6.76
69785;BMP280;14177;51.520;6.764;2023-04-08T04:22:33;102083.97;;;6.72
69785;BMP280;14177;51.520;6.764;2023-04-08T04:25:00;102092.59;;;6.73
69785;BMP280;14177;51.520;6.764;2023-04-08T04:27:27;102092.56;;;6.70
69785;BMP280;14177;51.520;6.764;2023-04-08T04:29:54;102090.84;;;6.69
69785;BMP280;14177;51.520;6.764;2023-04-08T04:32:21;102089.13;;;6.68
69785;BMP280;14177;51.520;6.764;2023-04-08T04:34:48;102087.38;;;6.65
69785;BMP280;14177;51.520;6.764;2023-04-08T04:37:16;102079.63;;;6.65
69785;BMP280;14177;51.520;6.764;2023-04-08T04:39:44;102095.09;;;6.62
69785;BMP280;14177;51.520;6.764;2023-04-08T04:42:11;102097.66;;;6.59
69785;BMP280;14177;51.520;6.764;2023-04-08T04:44:38;102103.69;;;6.61
69785;BMP280;14177;51.520;6.764;2023-04-08T04:47:05;102106.25;;;6.58
69785;BMP280;14177;51.520;6.764;2023-04-08T04:49:35;102108.84;;;6.57
69785;BMP280;14177;51.520;6.764;2023-04-08T04:52:03;102117.44;;;6.53
69785;BMP280;14177;51.520;6.764;2023-04-08T04:54:31;102120.88;;;6.53
69785;BMP280;14177;51.520;6.764;2023-04-08T04:56:59;102125.19;;;6.53
69785;BMP280;14177;51.520;6.764;2023-04-08T04:59:27;102123.44;;;6.50
69785;BMP280;14177;51.520;6.764;2023-04-08T05:01:54;102127.75;;;6.48
69785;BMP280;14177;51.520;6.764;2023-04-08T05:04:24;102132.88;;;6.42
69785;BMP280;14177;51.520;6.764;2023-04-08T05:06:51;102135.38;;;6.38
69785;BMP280;14177;51.520;6.764;2023-04-08T05:09:18;102123.28;;;6.29
69785;BMP280;14177;51.520;6.764;2023-04-08T05:11:46;102122.41;;;6.24
69785;BMP280;14177;51.520;6.764;2023-04-08T05:14:13;102129.25;;;6.19
69785;BMP280;14177;51.520;6.764;2023-04-08T05:16:40;102129.25;;;6.18
69785;BMP280;14177;51.520;6.764;2023-04-08T05:19:07;102130.09;;;6.20
69785;BMP280;14177;51.520;6.764;2023-04-08T05:21:34;102127.53;;;6.21
69785;BMP280;14177;51.520;6.764;2023-04-08T05:24:01;102135.28;;;6.23
69785;BMP280;14177;51.520;6.764;2023-04-08T05:26:29;102135.31;;;6.24
69785;BMP280;14177;51.520;6.764;2023-04-08T05:28:56;102131.84;;;6.24
69785;BMP280;14177;51.520;6.764;2023-04-08T05:31:23;102137.03;;;6.25
69785;BMP280;14177;51.520;6.764;2023-04-08T05:33:50;102140.50;;;6.27
69785;BMP280;14177;51.520;6.764;2023-04-08T05:36:17;102143.06;;;6.27
69785;BMP280;14177;51.520;6.764;2023-04-08T05:38:44;102143.06;;;6.27
69785;BMP280;14177;51.520;6.764;2023-04-08T05:41:11;102142.19;;;6.27
69785;BMP280;14177;51.520;6.764;2023-04-08T05:43:38;102160.25;;;6.25
69785;BMP280;14177;51.520;6.764;2023-04-08T05:46:07;102156.78;;;6.20
69785;BMP280;14177;51.520;6.764;2023-04-08T05:48:35;102164.53;;;6.19
69785;BMP280;14177;51.520;6.764;2023-04-08T05:51:02;102163.63;;;6.18
69785;BMP280;14177;51.520;6.764;2023-04-08T05:53:29;102170.53;;;6.19
69785;BMP280;14177;51.520;6.764;2023-04-08T05:55:56;102173.13;;;6.19
69785;BMP280;14177;51.520;6.764;2023-04-08T05:58:23;102175.69;;;6.19
69785;BMP280;14177;51.520;6.764;2023-04-08T06:00:50;102177.44;;;6.19
69785;BMP280;14177;51.520;6.764;2023-04-08T06:03:17;102171.38;;;6.17
69785;BMP280;14177;51.520;6.764;2023-04-08T06:05:46;102170.50;;;6.15
69785;BMP280;14177;51.520;6.764;2023-04-08T06:08:13;102174.81;;;6.16
69785;BMP280;14177;51.520;6.764;2023-04-08T06:10:48;102175.66;;;6.16
69785;BMP280;14177;51.520;6.764;2023-04-08T06:13:15;102184.28;;;6.18
69785;BMP280;14177;51.520;6.764;2023-04-08T06:15:43;102186.00;;;6.16
69785;BMP280;14177;51.520;6.764;2023-04-08T06:18:10;102182.56;;;6.17
69785;BMP280;14177;51.520;6.764;2023-04-08T06:20:37;102189.41;;;6.15
69785;BMP280;14177;51.520;6.764;2023-04-08T06:23:04;102186.00;;;6.15
69785;BMP280;14177;51.520;6.764;2023-04-08T06:25:31;102197.16;;;6.14
69785;BMP280;14177;51.520;6.764;2023-04-08T06:27:58;102198.88;;;6.15
69785;BMP280;14177;51.520;6.764;2023-04-08T06:30:25;102198.84;;;6.13
69785;BMP280;14177;51.520;6.764;2023-04-08T06:32:52;102197.13;;;6.12
69785;BMP280;14177;51.520;6.764;2023-04-08T06:35:19;102199.69;;;6.09
69785;BMP280;14177;51.520;6.764;2023-04-08T06:37:46;102198.78;;;6.03
69785;BMP280;14177;51.520;6.764;2023-04-08T06:40:13;102198.78;;;6.04
69785;BMP280;14177;51.520;6.764;2023-04-08T06:42:41;102211.72;;;6.09
69785;BMP280;14177;51.520;6.764;2023-04-08T06:45:26;102210.84;;;6.08
69785;BMP280;14177;51.520;6.764;2023-04-08T06:47:54;102211.72;;;6.10
69785;BMP280;14177;51.520;6.764;2023-04-08T06:50:22;102214.31;;;6.09
69785;BMP280;14177;51.520;6.764;2023-04-08T06:52:49;102223.72;;;6.05
69785;BMP280;14177;51.520;6.764;2023-04-08T06:55:16;102229.78;;;6.09
69785;BMP280;14177;51.520;6.764;2023-04-08T06:57:43;102227.25;;;6.13
69785;BMP280;14177;51.520;6.764;2023-04-08T07:00:10;102234.16;;;6.17
69785;BMP280;14177;51.520;6.764;2023-04-08T07:02:38;102232.53;;;6.25
69785;BMP280;14177;51.520;6.764;2023-04-08T07:05:05;102231.66;;;6.28
69785;BMP280;14177;51.520;6.764;2023-04-08T07:07:33;102229.19;;;6.35
69785;BMP280;14177;51.520;6.764;2023-04-08T07:10:00;102232.66;;;6.42
69785;BMP280;14177;51.520;6.764;2023-04-08T07:12:27;102230.13;;;6.48
69785;BMP280;14177;51.520;6.764;2023-04-08T07:14:54;102237.94;;;6.54
69785;BMP280;14177;51.520;6.764;2023-04-08T07:17:21;102240.53;;;6.58
69785;BMP280;14177;51.520;6.764;2023-04-08T07:19:48;102235.41;;;6.60
69785;BMP280;14177;51.520;6.764;2023-04-08T07:22:15;102239.75;;;6.65
69785;BMP280;14177;51.520;6.764;2023-04-08T07:24:43;102250.09;;;6.68
69785;BMP280;14177;51.520;6.764;2023-04-08T07:27:15;102257.03;;;6.72
69785;BMP280;14177;51.520;6.764;2023-04-08T07:29:43;102262.22;;;6.78
69785;BMP280;14177;51.520;6.764;2023-04-08T07:32:10;102260.53;;;6.80
69785;BMP280;14177;51.520;6.764;2023-04-08T07:34:37;102259.69;;;6.83
69785;BMP280;14177;51.520;6.764;2023-04-08T07:37:04;102267.44;;;6.84
69785;BMP280;14177;51.520;6.764;2023-04-08T07:39:31;102260.63;;;6.92
69785;BMP280;14177;51.520;6.764;2023-04-08T07:41:58;102258.94;;;6.97
69785;BMP280;14177;51.520;6.764;2023-04-08T07:44:26;102263.28;;;7.04
69785;BMP280;14177;51.520;6.764;2023-04-08T07:46:53;102257.31;;;7.16
69785;BMP280;14177;51.520;6.764;2023-04-08T07:49:20;102266.88;;;7.27
69785;BMP280;14177;51.520;6.764;2023-04-08T07:51:47;102264.34;;;7.39
69785;BMP280;14177;51.520;6.764;2023-04-08T07:54:14;102264.47;;;7.66
69785;BMP280;14177;51.520;6.764;2023-04-08T07:56:43;102266.28;;;7.85
69785;BMP280;14177;51.520;6.764;2023-04-08T07:59:11;102273.25;;;8.08
69785;BMP280;14177;51.520;6.764;2023-04-08T08:01:38;102265.53;;;8.23
69785;BMP280;14177;51.520;6.764;2023-04-08T08:04:05;102280.25;;;8.52
69785;BMP280;14177;51.520;6.764;2023-04-08T08:06:33;102283.69;;;8.93
69785;BMP280;14177;51.520;6.764;2023-04-08T08:09:00;102283.63;;;9.32
69785;BMP280;14177;51.520;6.764;2023-04-08T08:11:28;102274.88;;;9.63
69785;BMP280;14177;51.520;6.764;2023-04-08T08:13:54;102270.41;;;9.95
69785;BMP280;14177;51.520;6.764;2023-04-08T08:16:22;102270.38;;;10.05
69785;BMP280;14177;51.520;6.764;2023-04-08T08:18:53;102266.88;;;10.17
69785;BMP280;14177;51.520;6.764;2023-04-08T08:21:21;102270.25;;;10.25
69785;BMP280;14177;51.520;6.764;2023-04-08T08:23:48;102279.78;;;10.26
69785;BMP280;14177;51.520;6.764;2023-04-08T08:26:15;102287.63;;;10.20
69785;BMP280;14177;51.520;6.764;2023-04-08T08:28:42;102281.56;;;10.16
69785;BMP280;14177;51.520;6.764;2023-04-08T08:31:09;102291.97;;;10.13
69785;BMP280;14177;51.520;6.764;2023-04-08T08:33:37;102287.69;;;10.08
69785;BMP280;14177;51.520;6.764;2023-04-08T08:36:04;102285.97;;;10.07
69785;BMP280;14177;51.520;6.764;2023-04-08T08:38:33;102285.09;;;10.11
69785;BMP280;14177;51.520;6.764;2023-04-08T08:41:00;102295.44;;;10.12
69785;BMP280;14177;51.520;6.764;2023-04-08T08:43:30;102292.00;;;10.12
69785;BMP280;14177;51.520;6.764;2023-04-08T08:45:59;102297.19;;;10.12
69785;BMP280;14177;51.520;6.764;2023-04-08T08:48:27;102287.66;;;10.12
69785;BMP280;14177;51.520;6.764;2023-04-08T08:50:55;102294.63;;;10.09
69785;BMP280;14177;51.520;6.764;2023-04-08T08:53:29;102286.81;;;10.10
69785;BMP280;14177;51.520;6.764;2023-04-08T08:56:00;102291.13;;;10.13
69785;BMP280;14177;51.520;6.764;2023-04-08T08:58:44;102288.50;;;10.14
69785;BMP280;14177;51.520;6.764;2023-04-08T09:01:37;102285.06;;;10.14
69785;BMP280;14177;51.520;6.764;2023-04-08T09:04:16;102283.34;;;10.13
69785;BMP280;14177;51.520;6.764;2023-04-08T09:06:48;102292.88;;;10.11
69785;BMP280;14177;51.520;6.764;2023-04-08T09:09:17;102290.28;;;10.11
69785;BMP280;14177;51.520;6.764;2023-04-08T09:11:46;102288.53;;;10.13
69785;BMP280;14177;51.520;6.764;2023-04-08T09:14:24;102298.88;;;10.20
69785;BMP280;14177;51.520;6.764;2023-04-08T09:16:52;102297.06;;;10.30
69785;BMP280;14177;51.520;6.764;2023-04-08T09:19:19;102295.25;;;10.41
69785;BMP280;14177;51.520;6.764;2023-04-08T09:22:09;102306.41;;;10.58
69785;BMP280;14177;51.520;6.764;2023-04-08T09:24:36;102319.34;;;10.67
69785;BMP280;14177;51.520;6.764;2023-04-08T09:27:04;102321.03;;;10.74
69785;BMP280;14177;51.520;6.764;2023-04-08T09:29:31;102321.88;;;10.76
69785;BMP280;14177;51.520;6.764;2023-04-08T09:32:05;102314.00;;;10.88
69785;BMP280;14177;51.520;6.764;2023-04-08T09:34:32;102313.75;;;11.11
69785;BMP280;14177;51.520;6.764;2023-04-08T09:37:00;102314.31;;;11.42
69785;BMP280;14177;51.520;6.764;2023-04-08T09:39:28;102316.44;;;11.85
69785;BMP280;14177;51.520;6.764;2023-04-08T09:41:59;102321.16;;;12.24
69785;BMP280;14177;51.520;6.764;2023-04-08T09:44:28;102306.59;;;12.67
69785;BMP280;14177;51.520;6.764;2023-04-08T09:47:14;102310.75;;;13.30
69785;BMP280;14177;51.520;6.764;2023-04-08T09:49:54;102317.59;;;13.79
69785;BMP280;14177;51.520;6.764;2023-04-08T09:52:33;102298.88;;;14.00
69785;BMP280;14177;51.520;6.764;2023-04-08T09:55:11;102300.81;;;13.90
69785;BMP280;14177;51.520;6.764;2023-04-08T10:00:24;102306.91;;;13.48
69785;BMP280;14177;51.520;6.764;2023-04-08T10:05:42;102301.19;;;13.30
69785;BMP280;14177;51.520;6.764;2023-04-08T10:08:09;102303.72;;;13.33
69785;BMP280;14177;51.520;6.764;2023-04-08T10:10:41;102303.69;;;13.36
69785;BMP280;14177;51.520;6.764;2023-04-08T10:13:08;102293.50;;;13.21
69785;BMP280;14177;51.520;6.764;2023-04-08T10:15:37;102298.94;;;13.11
69785;BMP280;14177;51.520;6.764;2023-04-08T10:23:13;102304.47;;;12.90
69785;BMP280;14177;51.520;6.764;2023-04-08T10:25:45;102307.28;;;12.78
69785;BMP280;14177;51.520;6.764;2023-04-08T10:30:45;102316.16;;;12.66
69785;BMP280;14177;51.520;6.764;2023-04-08T10:36:08;102319.66;;;12.65
69785;BMP280;14177;51.520;6.764;2023-04-08T10:38:37;102310.22;;;12.57
69785;BMP280;14177;51.520;6.764;2023-04-08T10:41:04;102310.31;;;12.51
69785;BMP280;14177;51.520;6.764;2023-04-08T10:43:36;102312.13;;;12.46
69785;BMP280;14177;51.520;6.764;2023-04-08T10:46:03;102316.50;;;12.45
69785;BMP280;14177;51.520;6.764;2023-04-08T10:48:31;102306.19;;;12.38
69785;BMP280;14177;51.520;6.764;2023-04-08T10:51:01;102301.06;;;12.32
69785;BMP280;14177;51.520;6.764;2023-04-08T10:53:34;102302.03;;;12.25
69785;BMP280;14177;51.520;6.764;2023-04-08T10:56:11;102303.78;;;12.23
69785;BMP280;14177;51.520;6.764;2023-04-08T10:58:52;102299.66;;;12.07
69785;BMP280;14177;51.520;6.764;2023-04-08T11:01:21;102302.34;;;12.01
69785;BMP280;14177;51.520;6.764;2023-04-08T11:03:49;102288.47;;;11.99
69785;BMP280;14177;51.520;6.764;2023-04-08T11:06:17;102292.84;;;11.99
69785;BMP280;14177;51.520;6.764;2023-04-08T11:08:45;102292.88;;;11.96
69785;BMP280;14177;51.520;6.764;2023-04-08T11:11:13;102287.72;;;11.93
69785;BMP280;14177;51.520;6.764;2023-04-08T11:13:44;102287.63;;;11.97
69785;BMP280;14177;51.520;6.764;2023-04-08T11:16:22;102297.19;;;11.98
69785;BMP280;14177;51.520;6.764;2023-04-08T11:18:51;102297.13;;;12.01
69785;BMP280;14177;51.520;6.764;2023-04-08T11:21:25;102291.00;;;12.04
69785;BMP280;14177;51.520;6.764;2023-04-08T11:23:56;102298.03;;;12.00
69785;BMP280;14177;51.520;6.764;2023-04-08T11:26:24;102288.44;;;12.02
69785;BMP280;14177;51.520;6.764;2023-04-08T11:28:55;102293.56;;;12.08
69785;BMP280;14177;51.520;6.764;2023-04-08T11:31:22;102291.94;;;12.01
69785;BMP280;14177;51.520;6.764;2023-04-08T11:33:53;102293.56;;;12.08
69785;BMP280;14177;51.520;6.764;2023-04-08T11:36:24;102289.97;;;12.18
69785;BMP280;14177;51.520;6.764;2023-04-08T11:38:53;102288.88;;;12.32
69785;BMP280;14177;51.520;6.764;2023-04-08T11:41:21;102282.59;;;12.44
69785;BMP280;14177;51.520;6.764;2023-04-08T11:43:55;102280.59;;;12.61
69785;BMP280;14177;51.520;6.764;2023-04-08T11:46:23;102286.22;;;12.88
69785;BMP280;14177;51.520;6.764;2023-04-08T11:49:25;102290.00;;;13.22
69785;BMP280;14177;51.520;6.764;2023-04-08T11:51:57;102291.41;;;13.39
69785;BMP280;14177;51.520;6.764;2023-04-08T11:54:30;102294.78;;;13.46
69785;BMP280;14177;51.520;6.764;2023-04-08T11:56:58;102296.34;;;13.54
69785;BMP280;14177;51.520;6.764;2023-04-08T11:59:26;102285.91;;;13.53
69785;BMP280;14177;51.520;6.764;2023-04-08T12:01:55;102299.84;;;13.52
69785;BMP280;14177;51.520;6.764;2023-04-08T12:04:23;102294.56;;;13.56
69785;BMP280;14177;51.520;6.764;2023-04-08T12:06:50;102292.69;;;13.63
69785;BMP280;14177;51.520;6.764;2023-04-08T12:09:18;102293.31;;;13.74
69785;BMP280;14177;51.520;6.764;2023-04-08T12:11:45;102294.09;;;13.80
69785;BMP280;14177;51.520;6.764;2023-04-08T12:14:15;102293.91;;;13.86
69785;BMP280;14177;51.520;6.764;2023-04-08T12:16:42;102296.41;;;13.92
69785;BMP280;14177;51.520;6.764;2023-04-08T12:19:09;102286.53;;;14.06
69785;BMP280;14177;51.520;6.764;2023-04-08T12:21:36;102285.56;;;14.10
69785;BMP280;14177;51.520;6.764;2023-04-08T12:24:04;102294.13;;;14.18
69785;BMP280;14177;51.520;6.764;2023-04-08T12:26:32;102295.78;;;14.22
69785;BMP280;14177;51.520;6.764;2023-04-08T12:29:00;102289.69;;;14.23
69785;BMP280;14177;51.520;6.764;2023-04-08T12:31:27;102288.44;;;14.39
69785;BMP280;14177;51.520;6.764;2023-04-08T12:33:55;102282.94;;;14.51
69785;BMP280;14177;51.520;6.764;2023-04-08T12:36:22;102281.84;;;14.58
69785;BMP280;14177;51.520;6.764;2023-04-08T12:38:49;102281.84;;;14.58
69785;BMP280;14177;51.520;6.764;2023-04-08T12:41:17;102281.63;;;14.67
69785;BMP280;14177;51.520;6.764;2023-04-08T12:43:44;102279.84;;;14.69
69785;BMP280;14177;51.520;6.764;2023-04-08T12:46:12;102284.09;;;14.73
69785;BMP280;14177;51.520;6.764;2023-04-08T12:48:43;102279.22;;;14.59
69785;BMP280;14177;51.520;6.764;2023-04-08T12:51:15;102273.28;;;14.53
69785;BMP280;14177;51.520;6.764;2023-04-08T12:53:42;102276.94;;;14.46
69785;BMP280;14177;51.520;6.764;2023-04-08T12:56:09;102270.13;;;14.39
69785;BMP280;14177;51.520;6.764;2023-04-08T12:58:37;102272.97;;;14.30
69785;BMP280;14177;51.520;6.764;2023-04-08T13:01:04;102278.34;;;14.23
69785;BMP280;14177;51.520;6.764;2023-04-08T13:03:32;102274.22;;;14.11
69785;BMP280;14177;51.520;6.764;2023-04-08T13:06:01;102276.91;;;14.08
69785;BMP280;14177;51.520;6.764;2023-04-08T13:08:31;102276.97;;;14.05
69785;BMP280;14177;51.520;6.764;2023-04-08T13:10:59;102273.59;;;14.00
69785;BMP280;14177;51.520;6.764;2023-04-08T13:13:27;102277.16;;;13.98
69785;BMP280;14177;51.520;6.764;2023-04-08T13:15:58;102272.84;;;13.95
69785;BMP280;14177;51.520;6.764;2023-04-08T13:18:27;102271.09;;;13.94
69785;BMP280;14177;51.520;6.764;2023-04-08T13:20:55;102270.34;;;13.91
69785;BMP280;14177;51.520;6.764;2023-04-08T13:23:24;102263.44;;;13.87
69785;BMP280;14177;51.520;6.764;2023-04-08T13:25:52;102261.00;;;13.79
69785;BMP280;14177;51.520;6.764;2023-04-08T13:28:24;102262.75;;;13.80
69785;BMP280;14177;51.520;6.764;2023-04-08T13:30:52;102268.03;;;13.77
69785;BMP280;14177;51.520;6.764;2023-04-08T13:33:22;102264.59;;;13.74
69785;BMP280;14177;51.520;6.764;2023-04-08T13:35:50;102258.47;;;13.76
69785;BMP280;14177;51.520;6.764;2023-04-08T13:38:17;102261.91;;;13.77
69785;BMP280;14177;51.520;6.764;2023-04-08T13:40:45;102254.97;;;13.77
69785;BMP280;14177;51.520;6.764;2023-04-08T13:43:15;102263.69;;;13.76
69785;BMP280;14177;51.520;6.764;2023-04-08T13:45:43;102257.50;;;13.80
69785;BMP280;14177;51.520;6.764;2023-04-08T13:48:12;102264.16;;;13.95
69785;BMP280;14177;51.520;6.764;2023-04-08T13:50:40;102257.00;;;14.03
69785;BMP280;14177;51.520;6.764;2023-04-08T13:53:08;102254.41;;;14.03
69785;BMP280;14177;51.520;6.764;2023-04-08T13:55:39;102251.72;;;14.04
69785;BMP280;14177;51.520;6.764;2023-04-08T13:58:07;102252.69;;;14.00
69785;BMP280;14177;51.520;6.764;2023-04-08T14:00:49;102252.69;;;14.00
69785;BMP280;14177;51.520;6.764;2023-04-08T14:03:19;102259.63;;;14.03
69785;BMP280;14177;51.520;6.764;2023-04-08T14:06:27;102249.13;;;14.04
69785;BMP280;14177;51.520;6.764;2023-04-08T14:09:02;102247.31;;;14.08
69785;BMP280;14177;51.520;6.764;2023-04-08T14:11:29;102246.38;;;14.10
69785;BMP280;14177;51.520;6.764;2023-04-08T14:13:57;102241.16;;;14.10
69785;BMP280;14177;51.520;6.764;2023-04-08T14:17:00;102249.03;;;14.09
69785;BMP280;14177;51.520;6.764;2023-04-08T14:20:53;102244.84;;;14.02
69785;BMP280;14177;51.520;6.764;2023-04-08T14:24:49;102243.13;;;14.01
69785;BMP280;14177;51.520;6.764;2023-04-08T14:32:59;102241.47;;;13.95
69785;BMP280;14177;51.520;6.764;2023-04-08T14:35:57;102238.03;;;13.93
69785;BMP280;14177;51.520;6.764;2023-04-08T14:38:56;102241.53;;;13.94
69785;BMP280;14177;51.520;6.764;2023-04-08T14:41:54;102238.09;;;13.92
69785;BMP280;14177;51.520;6.764;2023-04-08T14:44:59;102232.16;;;13.84
69785;BMP280;14177;51.520;6.764;2023-04-08T14:47:39;102239.22;;;13.80